Aérodrome :
LOGIN :

S'inscrire | Disclaimer

   EN    FR    IT 

 










Légende :    VFR   VFR Marginal   IFR   IFR Intensif   IFR Très Intensif
Visi : 
Plafond : 
>= 8 km
>= 3000ft
5 à 8 km
1000 à 3000 ft
1500m à 5 km
500 à 1000 ft
800 à 1500m
200 à 500 ft
< 800m
< 200 ft
Symboles :   Orages  Brouillard  Fortes neiges  Fortes précipitations  Vent > 20 kt
SIGMETs :   Divers  Orages  Givrage  Turbulence  Onde Orograph.  Cendres Volcan.






- Altitude de l'aérodrome : 308 ft


ESCF - Malmen AB

DERNIER METAR :
  • 221450Z AUTO 24022G34KT 9999 -RA SCT025/// BKN037/// OVC068/// 06/02 Q0983

METARs EXPIRÉS :
  • 221420Z AUTO 24022G36KT 9999 SCT025/// BKN032/// BKN040/// 06/03 Q0983
  • 221350Z AUTO 24021KT 9999 BKN025/// 06/03 Q0983
  • 221320Z AUTO 22020KT 9999 FEW023/// BKN110/// 06/04 Q0982
  • 221250Z AUTO 23023G39KT 9999 -SHRA BKN019/// OVC031/// 06/04 Q0983
  • 221220Z AUTO 24017G31KT 9999 -SHRA SCT019/// BKN025/// OVC038/// 07/04 Q0984

Prévision TAF périmée.



MET'MAP, la Météo Aéronautique d'un coup d'oeil ! - Copyright ORBIFLY Décembre 2007 - Disclaimer

ORBIFLY MET'MAP TEAM :

Programmation & Développement : Alexandra Zaïnal
Sur une idée originale de : Baudouin d'Aumeries
Assistance à la programmation : Marc-Olivier Méhu
Soutien technique & logistique : Manuel Goepfert

Contact : metmap@orbifly.com




SOURCES & CREDITS :

   NOAA